sensor_id;sensor_type;location;lat;lon;timestamp;P1;durP1;ratioP1;P2;durP2;ratioP2
21621;SDS011;10973;46.706;12.340;2023-02-20T00:06:08;2.10;;;1.90;;
21621;SDS011;10973;46.706;12.340;2023-02-20T00:08:36;2.30;;;1.90;;
21621;SDS011;10973;46.706;12.340;2023-02-20T00:19:15;2.03;;;1.83;;
21621;SDS011;10973;46.706;12.340;2023-02-20T00:21:46;2.43;;;2.17;;
21621;SDS011;10973;46.706;12.340;2023-02-20T00:24:15;2.63;;;2.43;;
21621;SDS011;10973;46.706;12.340;2023-02-20T00:26:47;2.30;;;2.13;;
21621;SDS011;10973;46.706;12.340;2023-02-20T00:29:17;2.83;;;1.97;;
21621;SDS011;10973;46.706;12.340;2023-02-20T00:31:52;2.50;;;2.17;;
21621;SDS011;10973;46.706;12.340;2023-02-20T00:34:23;3.07;;;2.77;;
21621;SDS011;10973;46.706;12.340;2023-02-20T00:36:53;2.93;;;2.40;;
21621;SDS011;10973;46.706;12.340;2023-02-20T00:39:21;2.67;;;2.17;;
21621;SDS011;10973;46.706;12.340;2023-02-20T00:41:48;1.93;;;1.83;;
21621;SDS011;10973;46.706;12.340;2023-02-20T00:44:16;2.00;;;1.90;;
21621;SDS011;10973;46.706;12.340;2023-02-20T00:46:43;2.17;;;2.07;;
21621;SDS011;10973;46.706;12.340;2023-02-20T00:49:11;2.23;;;2.13;;
21621;SDS011;10973;46.706;12.340;2023-02-20T00:51:38;2.60;;;2.43;;
21621;SDS011;10973;46.706;12.340;2023-02-20T00:54:06;2.67;;;2.50;;
21621;SDS011;10973;46.706;12.340;2023-02-20T01:00:23;4.47;;;3.00;;
21621;SDS011;10973;46.706;12.340;2023-02-20T01:02:53;3.70;;;3.30;;
21621;SDS011;10973;46.706;12.340;2023-02-20T01:11:52;3.87;;;2.87;;
21621;SDS011;10973;46.706;12.340;2023-02-20T01:14:20;3.00;;;2.80;;
21621;SDS011;10973;46.706;12.340;2023-02-20T01:16:49;3.43;;;3.13;;
21621;SDS011;10973;46.706;12.340;2023-02-20T01:19:19;2.80;;;2.60;;
21621;SDS011;10973;46.706;12.340;2023-02-20T01:21:48;2.50;;;2.30;;
21621;SDS011;10973;46.706;12.340;2023-02-20T01:24:16;2.60;;;2.40;;
21621;SDS011;10973;46.706;12.340;2023-02-20T01:26:44;2.83;;;2.50;;
21621;SDS011;10973;46.706;12.340;2023-02-20T01:29:13;3.70;;;2.63;;
21621;SDS011;10973;46.706;12.340;2023-02-20T01:35:23;6.53;;;2.30;;
21621;SDS011;10973;46.706;12.340;2023-02-20T01:46:23;2.40;;;2.20;;
21621;SDS011;10973;46.706;12.340;2023-02-20T01:48:54;2.30;;;2.20;;
21621;SDS011;10973;46.706;12.340;2023-02-20T01:51:37;2.47;;;2.00;;
21621;SDS011;10973;46.706;12.340;2023-02-20T01:54:14;2.30;;;2.10;;
21621;SDS011;10973;46.706;12.340;2023-02-20T02:00:45;2.13;;;2.00;;
21621;SDS011;10973;46.706;12.340;2023-02-20T02:03:17;1.93;;;1.83;;
21621;SDS011;10973;46.706;12.340;2023-02-20T02:05:51;3.00;;;1.87;;
21621;SDS011;10973;46.706;12.340;2023-02-20T02:08:25;2.20;;;2.03;;
21621;SDS011;10973;46.706;12.340;2023-02-20T02:10:59;3.03;;;2.40;;
21621;SDS011;10973;46.706;12.340;2023-02-20T02:21:59;1.80;;;1.70;;
21621;SDS011;10973;46.706;12.340;2023-02-20T02:43:53;2.70;;;1.83;;
21621;SDS011;10973;46.706;12.340;2023-02-20T02:51:55;3.03;;;2.83;;
21621;SDS011;10973;46.706;12.340;2023-02-20T02:54:25;3.57;;;3.27;;
21621;SDS011;10973;46.706;12.340;2023-02-20T02:59:52;6.60;;;5.00;;
21621;SDS011;10973;46.706;12.340;2023-02-20T03:02:27;7.87;;;5.63;;
21621;SDS011;10973;46.706;12.340;2023-02-20T03:05:01;6.77;;;5.00;;
21621;SDS011;10973;46.706;12.340;2023-02-20T03:11:34;6.77;;;4.03;;
21621;SDS011;10973;46.706;12.340;2023-02-20T03:14:15;4.50;;;3.27;;
21621;SDS011;10973;46.706;12.340;2023-02-20T03:26:56;3.50;;;3.20;;
21621;SDS011;10973;46.706;12.340;2023-02-20T03:29:28;3.17;;;2.97;;
21621;SDS011;10973;46.706;12.340;2023-02-20T03:32:04;3.67;;;2.50;;
21621;SDS011;10973;46.706;12.340;2023-02-20T03:34:36;2.40;;;2.20;;
21621;SDS011;10973;46.706;12.340;2023-02-20T03:37:08;2.70;;;2.50;;
21621;SDS011;10973;46.706;12.340;2023-02-20T03:39:44;3.57;;;2.13;;
21621;SDS011;10973;46.706;12.340;2023-02-20T03:42:19;2.10;;;2.00;;
21621;SDS011;10973;46.706;12.340;2023-02-20T03:53:00;1.87;;;1.77;;
21621;SDS011;10973;46.706;12.340;2023-02-20T03:55:28;4.40;;;1.80;;
21621;SDS011;10973;46.706;12.340;2023-02-20T03:57:56;2.13;;;1.93;;
21621;SDS011;10973;46.706;12.340;2023-02-20T04:04:41;1.90;;;1.80;;
21621;SDS011;10973;46.706;12.340;2023-02-20T04:07:27;2.40;;;2.20;;
21621;SDS011;10973;46.706;12.340;2023-02-20T04:10:03;2.30;;;2.10;;
21621;SDS011;10973;46.706;12.340;2023-02-20T04:12:39;3.30;;;2.80;;
21621;SDS011;10973;46.706;12.340;2023-02-20T04:22:11;2.07;;;1.80;;
21621;SDS011;10973;46.706;12.340;2023-02-20T04:24:53;2.10;;;2.00;;
21621;SDS011;10973;46.706;12.340;2023-02-20T04:27:51;2.20;;;2.00;;
21621;SDS011;10973;46.706;12.340;2023-02-20T04:30:19;2.23;;;2.13;;
21621;SDS011;10973;46.706;12.340;2023-02-20T04:32:47;3.40;;;2.20;;
21621;SDS011;10973;46.706;12.340;2023-02-20T04:35:16;4.17;;;2.07;;
21621;SDS011;10973;46.706;12.340;2023-02-20T04:37:45;2.00;;;1.90;;
21621;SDS011;10973;46.706;12.340;2023-02-20T04:40:13;3.67;;;2.03;;
21621;SDS011;10973;46.706;12.340;2023-02-20T04:42:42;2.53;;;1.80;;
21621;SDS011;10973;46.706;12.340;2023-02-20T04:45:10;2.00;;;1.90;;
21621;SDS011;10973;46.706;12.340;2023-02-20T04:47:38;2.63;;;2.20;;
21621;SDS011;10973;46.706;12.340;2023-02-20T04:53:47;2.50;;;2.30;;
21621;SDS011;10973;46.706;12.340;2023-02-20T04:56:14;4.20;;;2.97;;
21621;SDS011;10973;46.706;12.340;2023-02-20T04:58:45;3.50;;;2.50;;
21621;SDS011;10973;46.706;12.340;2023-02-20T05:04:54;6.90;;;5.00;;
21621;SDS011;10973;46.706;12.340;2023-02-20T05:07:22;7.63;;;5.70;;
21621;SDS011;10973;46.706;12.340;2023-02-20T05:13:37;3.23;;;2.90;;
21621;SDS011;10973;46.706;12.340;2023-02-20T05:16:05;4.73;;;4.23;;
21621;SDS011;10973;46.706;12.340;2023-02-20T05:22:15;7.83;;;6.20;;
21621;SDS011;10973;46.706;12.340;2023-02-20T05:24:42;7.33;;;6.30;;
21621;SDS011;10973;46.706;12.340;2023-02-20T05:38:30;8.43;;;5.80;;
21621;SDS011;10973;46.706;12.340;2023-02-20T05:40:57;6.93;;;6.23;;
21621;SDS011;10973;46.706;12.340;2023-02-20T05:43:25;10.73;;;7.17;;
21621;SDS011;10973;46.706;12.340;2023-02-20T05:45:53;7.70;;;5.93;;
21621;SDS011;10973;46.706;12.340;2023-02-20T05:48:20;7.70;;;5.73;;
21621;SDS011;10973;46.706;12.340;2023-02-20T05:54:37;5.57;;;5.03;;
21621;SDS011;10973;46.706;12.340;2023-02-20T05:57:05;8.80;;;6.87;;
21621;SDS011;10973;46.706;12.340;2023-02-20T05:59:33;11.30;;;8.43;;
21621;SDS011;10973;46.706;12.340;2023-02-20T06:02:01;14.93;;;9.53;;
21621;SDS011;10973;46.706;12.340;2023-02-20T06:04:29;15.27;;;9.53;;
21621;SDS011;10973;46.706;12.340;2023-02-20T06:06:57;14.70;;;9.67;;
21621;SDS011;10973;46.706;12.340;2023-02-20T06:09:24;15.53;;;10.77;;
21621;SDS011;10973;46.706;12.340;2023-02-20T06:11:53;10.33;;;7.87;;
21621;SDS011;10973;46.706;12.340;2023-02-20T06:14:23;14.23;;;8.70;;
21621;SDS011;10973;46.706;12.340;2023-02-20T06:16:51;14.17;;;9.13;;
21621;SDS011;10973;46.706;12.340;2023-02-20T06:23:07;10.03;;;7.23;;
21621;SDS011;10973;46.706;12.340;2023-02-20T06:25:35;8.93;;;7.50;;
21621;SDS011;10973;46.706;12.340;2023-02-20T06:32:09;13.83;;;10.80;;
21621;SDS011;10973;46.706;12.340;2023-02-20T06:37:28;15.70;;;11.97;;
21621;SDS011;10973;46.706;12.340;2023-02-20T06:39:55;15.57;;;12.40;;
21621;SDS011;10973;46.706;12.340;2023-02-20T06:49:08;22.30;;;16.40;;
21621;SDS011;10973;46.706;12.340;2023-02-20T06:51:36;24.60;;;18.93;;
21621;SDS011;10973;46.706;12.340;2023-02-20T07:02:32;15.67;;;12.37;;
21621;SDS011;10973;46.706;12.340;2023-02-20T07:04:59;15.83;;;10.73;;
21621;SDS011;10973;46.706;12.340;2023-02-20T07:10:16;13.20;;;11.00;;
21621;SDS011;10973;46.706;12.340;2023-02-20T07:12:46;14.67;;;10.80;;
21621;SDS011;10973;46.706;12.340;2023-02-20T07:15:13;15.77;;;11.30;;
21621;SDS011;10973;46.706;12.340;2023-02-20T07:17:41;14.83;;;10.73;;
21621;SDS011;10973;46.706;12.340;2023-02-20T07:20:08;13.50;;;10.80;;
21621;SDS011;10973;46.706;12.340;2023-02-20T07:22:36;24.53;;;15.97;;
21621;SDS011;10973;46.706;12.340;2023-02-20T07:25:03;22.90;;;14.90;;
21621;SDS011;10973;46.706;12.340;2023-02-20T07:27:31;18.73;;;14.97;;
21621;SDS011;10973;46.706;12.340;2023-02-20T07:29:58;17.90;;;12.70;;
21621;SDS011;10973;46.706;12.340;2023-02-20T07:32:25;14.07;;;11.97;;
21621;SDS011;10973;46.706;12.340;2023-02-20T07:34:53;16.23;;;11.80;;
21621;SDS011;10973;46.706;12.340;2023-02-20T07:37:31;16.03;;;10.87;;
21621;SDS011;10973;46.706;12.340;2023-02-20T07:39:59;13.43;;;9.77;;
21621;SDS011;10973;46.706;12.340;2023-02-20T07:42:26;14.57;;;10.00;;
21621;SDS011;10973;46.706;12.340;2023-02-20T07:44:53;13.87;;;9.93;;
21621;SDS011;10973;46.706;12.340;2023-02-20T07:47:21;13.73;;;10.77;;
21621;SDS011;10973;46.706;12.340;2023-02-20T07:49:48;14.67;;;11.40;;
21621;SDS011;10973;46.706;12.340;2023-02-20T07:52:15;12.33;;;10.37;;
21621;SDS011;10973;46.706;12.340;2023-02-20T07:54:43;12.87;;;9.87;;
21621;SDS011;10973;46.706;12.340;2023-02-20T07:57:10;16.07;;;9.43;;
21621;SDS011;10973;46.706;12.340;2023-02-20T07:59:37;12.97;;;7.13;;
21621;SDS011;10973;46.706;12.340;2023-02-20T08:02:05;8.83;;;7.17;;
21621;SDS011;10973;46.706;12.340;2023-02-20T08:04:33;10.93;;;7.47;;
21621;SDS011;10973;46.706;12.340;2023-02-20T08:07:00;14.73;;;9.30;;
21621;SDS011;10973;46.706;12.340;2023-02-20T08:09:27;15.93;;;10.00;;
21621;SDS011;10973;46.706;12.340;2023-02-20T08:11:54;13.23;;;9.90;;
21621;SDS011;10973;46.706;12.340;2023-02-20T08:14:22;15.77;;;8.83;;
21621;SDS011;10973;46.706;12.340;2023-02-20T08:16:49;7.30;;;6.03;;
21621;SDS011;10973;46.706;12.340;2023-02-20T08:19:16;8.80;;;6.70;;
21621;SDS011;10973;46.706;12.340;2023-02-20T08:21:44;10.20;;;6.73;;
21621;SDS011;10973;46.706;12.340;2023-02-20T08:28:18;37.43;;;25.73;;
21621;SDS011;10973;46.706;12.340;2023-02-20T08:30:46;16.07;;;10.97;;
21621;SDS011;10973;46.706;12.340;2023-02-20T08:33:13;11.40;;;8.67;;
21621;SDS011;10973;46.706;12.340;2023-02-20T08:35:41;8.37;;;6.37;;
21621;SDS011;10973;46.706;12.340;2023-02-20T08:38:22;5.53;;;4.83;;
21621;SDS011;10973;46.706;12.340;2023-02-20T08:40:57;5.57;;;4.17;;
21621;SDS011;10973;46.706;12.340;2023-02-20T08:43:24;7.27;;;4.70;;
21621;SDS011;10973;46.706;12.340;2023-02-20T08:49:55;6.17;;;5.40;;
21621;SDS011;10973;46.706;12.340;2023-02-20T08:52:23;7.63;;;5.40;;
21621;SDS011;10973;46.706;12.340;2023-02-20T08:58:57;6.40;;;5.37;;
21621;SDS011;10973;46.706;12.340;2023-02-20T09:01:24;6.03;;;4.03;;
21621;SDS011;10973;46.706;12.340;2023-02-20T09:03:51;6.77;;;4.00;;
21621;SDS011;10973;46.706;12.340;2023-02-20T09:06:18;7.23;;;5.80;;
21621;SDS011;10973;46.706;12.340;2023-02-20T09:12:52;9.27;;;5.67;;
21621;SDS011;10973;46.706;12.340;2023-02-20T09:15:19;8.97;;;6.77;;
21621;SDS011;10973;46.706;12.340;2023-02-20T09:17:47;7.07;;;5.60;;
21621;SDS011;10973;46.706;12.340;2023-02-20T09:20:16;8.23;;;5.40;;
21621;SDS011;10973;46.706;12.340;2023-02-20T09:22:47;8.13;;;5.10;;
21621;SDS011;10973;46.706;12.340;2023-02-20T09:29:16;9.50;;;5.47;;
21621;SDS011;10973;46.706;12.340;2023-02-20T09:31:43;6.30;;;4.97;;
21621;SDS011;10973;46.706;12.340;2023-02-20T09:34:11;9.97;;;4.90;;
21621;SDS011;10973;46.706;12.340;2023-02-20T09:40:45;7.47;;;3.47;;
21621;SDS011;10973;46.706;12.340;2023-02-20T09:46:21;12.97;;;6.40;;
21621;SDS011;10973;46.706;12.340;2023-02-20T09:51:29;16.57;;;8.50;;
21621;SDS011;10973;46.706;12.340;2023-02-20T09:56:44;4.17;;;2.83;;
21621;SDS011;10973;46.706;12.340;2023-02-20T09:59:24;3.50;;;2.07;;
21621;SDS011;10973;46.706;12.340;2023-02-20T10:01:59;3.70;;;2.30;;
21621;SDS011;10973;46.706;12.340;2023-02-20T10:04:50;7.20;;;3.43;;
21621;SDS011;10973;46.706;12.340;2023-02-20T10:09:58;2.60;;;2.40;;
21621;SDS011;10973;46.706;12.340;2023-02-20T10:28:52;1.40;;;1.30;;
21621;SDS011;10973;46.706;12.340;2023-02-20T10:36:20;2.70;;;1.17;;
21621;SDS011;10973;46.706;12.340;2023-02-20T10:39:06;2.93;;;1.33;;
21621;SDS011;10973;46.706;12.340;2023-02-20T10:41:44;3.70;;;1.30;;
21621;SDS011;10973;46.706;12.340;2023-02-20T10:44:40;3.00;;;1.30;;
21621;SDS011;10973;46.706;12.340;2023-02-20T10:47:37;1.23;;;1.20;;
21621;SDS011;10973;46.706;12.340;2023-02-20T10:52:56;2.07;;;1.73;;
21621;SDS011;10973;46.706;12.340;2023-02-20T11:02:21;1.13;;;1.13;;
21621;SDS011;10973;46.706;12.340;2023-02-20T11:16:26;1.30;;;1.20;;
21621;SDS011;10973;46.706;12.340;2023-02-20T11:19:22;71.30;;;37.17;;
21621;SDS011;10973;46.706;12.340;2023-02-20T11:29:22;3.87;;;1.33;;
21621;SDS011;10973;46.706;12.340;2023-02-20T11:31:50;1.40;;;1.30;;
21621;SDS011;10973;46.706;12.340;2023-02-20T11:34:22;1.17;;;1.17;;
21621;SDS011;10973;46.706;12.340;2023-02-20T11:36:55;1.20;;;1.20;;
21621;SDS011;10973;46.706;12.340;2023-02-20T11:39:31;1.33;;;1.23;;
21621;SDS011;10973;46.706;12.340;2023-02-20T11:42:16;1.60;;;1.30;;
21621;SDS011;10973;46.706;12.340;2023-02-20T11:44:47;1.70;;;1.47;;
21621;SDS011;10973;46.706;12.340;2023-02-20T11:47:41;2.03;;;1.80;;
21621;SDS011;10973;46.706;12.340;2023-02-20T11:54:22;6.53;;;3.10;;
21621;SDS011;10973;46.706;12.340;2023-02-20T11:59:44;2.67;;;2.10;;
21621;SDS011;10973;46.706;12.340;2023-02-20T12:09:10;6.43;;;4.00;;
21621;SDS011;10973;46.706;12.340;2023-02-20T12:11:53;13.83;;;7.30;;
21621;SDS011;10973;46.706;12.340;2023-02-20T12:14:21;1.80;;;1.70;;
21621;SDS011;10973;46.706;12.340;2023-02-20T12:27:01;1.90;;;1.80;;
21621;SDS011;10973;46.706;12.340;2023-02-20T12:29:54;2.83;;;1.80;;
21621;SDS011;10973;46.706;12.340;2023-02-20T12:43:41;1.93;;;1.83;;
21621;SDS011;10973;46.706;12.340;2023-02-20T13:01:25;5.83;;;3.30;;
21621;SDS011;10973;46.706;12.340;2023-02-20T13:04:06;4.93;;;3.10;;
21621;SDS011;10973;46.706;12.340;2023-02-20T13:10:52;2.80;;;2.60;;
21621;SDS011;10973;46.706;12.340;2023-02-20T13:13:27;5.10;;;2.87;;
21621;SDS011;10973;46.706;12.340;2023-02-20T13:16:23;2.97;;;2.67;;
21621;SDS011;10973;46.706;12.340;2023-02-20T13:19:05;6.40;;;2.57;;
21621;SDS011;10973;46.706;12.340;2023-02-20T13:30:17;4.27;;;2.40;;
21621;SDS011;10973;46.706;12.340;2023-02-20T13:32:47;2.50;;;2.30;;
21621;SDS011;10973;46.706;12.340;2023-02-20T13:38:27;3.10;;;2.20;;
21621;SDS011;10973;46.706;12.340;2023-02-20T13:46:11;5.50;;;2.70;;
21621;SDS011;10973;46.706;12.340;2023-02-20T13:48:45;4.97;;;3.50;;
21621;SDS011;10973;46.706;12.340;2023-02-20T13:53:46;7.77;;;3.50;;
21621;SDS011;10973;46.706;12.340;2023-02-20T13:56:20;10.63;;;6.03;;
21621;SDS011;10973;46.706;12.340;2023-02-20T13:58:53;10.87;;;5.33;;
21621;SDS011;10973;46.706;12.340;2023-02-20T14:01:24;4.33;;;2.97;;
21621;SDS011;10973;46.706;12.340;2023-02-20T14:04:02;5.17;;;2.87;;
21621;SDS011;10973;46.706;12.340;2023-02-20T14:10:38;12.43;;;2.50;;
21621;SDS011;10973;46.706;12.340;2023-02-20T14:13:10;3.73;;;2.33;;
21621;SDS011;10973;46.706;12.340;2023-02-20T14:19:27;1.50;;;1.40;;
21621;SDS011;10973;46.706;12.340;2023-02-20T14:21:55;1.70;;;1.40;;
21621;SDS011;10973;46.706;12.340;2023-02-20T14:24:25;2.60;;;1.60;;
21621;SDS011;10973;46.706;12.340;2023-02-20T14:26:55;1.57;;;1.43;;
21621;SDS011;10973;46.706;12.340;2023-02-20T14:29:24;2.43;;;2.23;;
21621;SDS011;10973;46.706;12.340;2023-02-20T14:45:14;4.43;;;1.60;;
21621;SDS011;10973;46.706;12.340;2023-02-20T14:54:39;3.00;;;1.57;;
21621;SDS011;10973;46.706;12.340;2023-02-20T15:04:06;2.13;;;1.57;;
21621;SDS011;10973;46.706;12.340;2023-02-20T15:10:53;2.23;;;1.20;;
21621;SDS011;10973;46.706;12.340;2023-02-20T15:13:23;1.20;;;1.10;;
21621;SDS011;10973;46.706;12.340;2023-02-20T15:18:42;1.43;;;1.20;;
21621;SDS011;10973;46.706;12.340;2023-02-20T15:21:29;1.20;;;1.20;;
21621;SDS011;10973;46.706;12.340;2023-02-20T15:27:07;4.47;;;1.50;;
21621;SDS011;10973;46.706;12.340;2023-02-20T15:29:44;2.77;;;1.80;;
21621;SDS011;10973;46.706;12.340;2023-02-20T15:34:50;1.90;;;1.37;;
21621;SDS011;10973;46.706;12.340;2023-02-20T15:37:26;2.37;;;1.30;;
21621;SDS011;10973;46.706;12.340;2023-02-20T15:40:30;2.63;;;1.53;;
21621;SDS011;10973;46.706;12.340;2023-02-20T15:42:58;2.00;;;1.60;;
21621;SDS011;10973;46.706;12.340;2023-02-20T15:45:33;1.80;;;1.70;;
21621;SDS011;10973;46.706;12.340;2023-02-20T15:48:01;2.87;;;1.80;;
21621;SDS011;10973;46.706;12.340;2023-02-20T15:50:28;2.80;;;2.60;;
21621;SDS011;10973;46.706;12.340;2023-02-20T15:52:55;3.60;;;2.87;;
21621;SDS011;10973;46.706;12.340;2023-02-20T15:58:30;3.60;;;3.30;;
21621;SDS011;10973;46.706;12.340;2023-02-20T16:01:03;8.83;;;5.23;;
21621;SDS011;10973;46.706;12.340;2023-02-20T16:03:31;13.63;;;9.57;;
21621;SDS011;10973;46.706;12.340;2023-02-20T16:09:31;30.27;;;14.37;;
21621;SDS011;10973;46.706;12.340;2023-02-20T16:11:59;23.53;;;12.73;;
21621;SDS011;10973;46.706;12.340;2023-02-20T16:14:26;14.60;;;9.17;;
21621;SDS011;10973;46.706;12.340;2023-02-20T16:16:53;10.07;;;6.37;;
21621;SDS011;10973;46.706;12.340;2023-02-20T16:19:21;7.20;;;5.10;;
21621;SDS011;10973;46.706;12.340;2023-02-20T16:22:07;5.63;;;4.17;;
21621;SDS011;10973;46.706;12.340;2023-02-20T16:24:36;4.80;;;4.20;;
21621;SDS011;10973;46.706;12.340;2023-02-20T16:31:00;6.77;;;6.07;;
21621;SDS011;10973;46.706;12.340;2023-02-20T16:33:27;11.67;;;6.23;;
21621;SDS011;10973;46.706;12.340;2023-02-20T16:36:00;7.47;;;6.50;;
21621;SDS011;10973;46.706;12.340;2023-02-20T16:38:27;14.37;;;9.67;;
21621;SDS011;10973;46.706;12.340;2023-02-20T16:44:45;10.43;;;7.90;;
21621;SDS011;10973;46.706;12.340;2023-02-20T16:47:15;15.97;;;9.33;;
21621;SDS011;10973;46.706;12.340;2023-02-20T16:53:30;6.77;;;4.33;;
21621;SDS011;10973;46.706;12.340;2023-02-20T16:55:58;6.07;;;3.57;;
21621;SDS011;10973;46.706;12.340;2023-02-20T17:01:32;10.17;;;7.07;;
21621;SDS011;10973;46.706;12.340;2023-02-20T17:04:02;12.60;;;5.77;;
21621;SDS011;10973;46.706;12.340;2023-02-20T17:06:30;6.70;;;5.37;;
21621;SDS011;10973;46.706;12.340;2023-02-20T17:08:57;8.70;;;5.27;;
21621;SDS011;10973;46.706;12.340;2023-02-20T17:14:17;7.40;;;4.77;;
21621;SDS011;10973;46.706;12.340;2023-02-20T17:22:18;9.10;;;6.33;;
21621;SDS011;10973;46.706;12.340;2023-02-20T17:24:56;14.87;;;12.57;;
21621;SDS011;10973;46.706;12.340;2023-02-20T17:27:25;13.93;;;10.90;;
21621;SDS011;10973;46.706;12.340;2023-02-20T17:29:52;11.40;;;8.30;;
21621;SDS011;10973;46.706;12.340;2023-02-20T17:32:19;15.30;;;8.03;;
21621;SDS011;10973;46.706;12.340;2023-02-20T17:38:59;8.60;;;7.30;;
21621;SDS011;10973;46.706;12.340;2023-02-20T17:44:28;12.80;;;8.23;;
21621;SDS011;10973;46.706;12.340;2023-02-20T17:46:57;13.53;;;10.33;;
21621;SDS011;10973;46.706;12.340;2023-02-20T17:49:26;9.23;;;7.47;;
21621;SDS011;10973;46.706;12.340;2023-02-20T17:51:54;7.40;;;6.70;;
21621;SDS011;10973;46.706;12.340;2023-02-20T17:54:23;9.40;;;7.37;;
21621;SDS011;10973;46.706;12.340;2023-02-20T18:00:37;10.00;;;7.47;;
21621;SDS011;10973;46.706;12.340;2023-02-20T18:03:04;16.00;;;8.30;;
21621;SDS011;10973;46.706;12.340;2023-02-20T18:05:31;12.17;;;9.73;;
21621;SDS011;10973;46.706;12.340;2023-02-20T18:08:01;14.57;;;10.73;;
21621;SDS011;10973;46.706;12.340;2023-02-20T18:10:29;14.90;;;10.63;;
21621;SDS011;10973;46.706;12.340;2023-02-20T18:12:56;16.63;;;10.50;;
21621;SDS011;10973;46.706;12.340;2023-02-20T18:15:23;9.30;;;7.60;;
21621;SDS011;10973;46.706;12.340;2023-02-20T18:20:59;11.63;;;9.80;;
21621;SDS011;10973;46.706;12.340;2023-02-20T18:23:26;11.57;;;7.10;;
21621;SDS011;10973;46.706;12.340;2023-02-20T18:25:54;6.67;;;5.50;;
21621;SDS011;10973;46.706;12.340;2023-02-20T18:28:21;8.60;;;5.63;;
21621;SDS011;10973;46.706;12.340;2023-02-20T18:30:48;6.37;;;4.93;;
21621;SDS011;10973;46.706;12.340;2023-02-20T18:33:19;7.43;;;5.57;;
21621;SDS011;10973;46.706;12.340;2023-02-20T18:35:46;5.87;;;5.27;;
21621;SDS011;10973;46.706;12.340;2023-02-20T18:38:31;7.93;;;5.00;;
21621;SDS011;10973;46.706;12.340;2023-02-20T18:40:59;7.63;;;4.67;;
21621;SDS011;10973;46.706;12.340;2023-02-20T18:43:26;12.43;;;8.00;;
21621;SDS011;10973;46.706;12.340;2023-02-20T18:45:53;11.17;;;9.10;;
21621;SDS011;10973;46.706;12.340;2023-02-20T18:48:21;10.20;;;8.70;;
21621;SDS011;10973;46.706;12.340;2023-02-20T18:50:48;8.13;;;6.90;;
21621;SDS011;10973;46.706;12.340;2023-02-20T18:53:16;7.60;;;6.17;;
21621;SDS011;10973;46.706;12.340;2023-02-20T18:55:44;7.13;;;5.90;;
21621;SDS011;10973;46.706;12.340;2023-02-20T18:58:12;15.03;;;8.03;;
21621;SDS011;10973;46.706;12.340;2023-02-20T19:00:40;14.37;;;9.13;;
21621;SDS011;10973;46.706;12.340;2023-02-20T19:03:07;10.37;;;8.27;;
21621;SDS011;10973;46.706;12.340;2023-02-20T19:05:34;12.20;;;8.63;;
21621;SDS011;10973;46.706;12.340;2023-02-20T19:08:02;9.40;;;7.27;;
21621;SDS011;10973;46.706;12.340;2023-02-20T19:14:37;10.30;;;7.50;;
21621;SDS011;10973;46.706;12.340;2023-02-20T19:17:05;6.47;;;5.87;;
21621;SDS011;10973;46.706;12.340;2023-02-20T19:19:33;9.03;;;6.87;;
21621;SDS011;10973;46.706;12.340;2023-02-20T19:22:03;10.50;;;6.73;;
21621;SDS011;10973;46.706;12.340;2023-02-20T19:24:30;6.73;;;4.93;;
21621;SDS011;10973;46.706;12.340;2023-02-20T19:30:58;7.70;;;5.70;;
21621;SDS011;10973;46.706;12.340;2023-02-20T19:33:26;7.30;;;5.90;;
21621;SDS011;10973;46.706;12.340;2023-02-20T19:35:53;18.03;;;11.20;;
21621;SDS011;10973;46.706;12.340;2023-02-20T19:38:21;15.73;;;9.10;;
21621;SDS011;10973;46.706;12.340;2023-02-20T19:40:49;10.87;;;7.40;;
21621;SDS011;10973;46.706;12.340;2023-02-20T19:43:16;10.57;;;7.60;;
21621;SDS011;10973;46.706;12.340;2023-02-20T19:45:44;6.73;;;5.90;;
21621;SDS011;10973;46.706;12.340;2023-02-20T19:48:11;9.37;;;5.97;;
21621;SDS011;10973;46.706;12.340;2023-02-20T19:50:39;8.13;;;6.10;;
21621;SDS011;10973;46.706;12.340;2023-02-20T19:53:07;7.77;;;5.20;;
21621;SDS011;10973;46.706;12.340;2023-02-20T19:55:34;6.10;;;4.63;;
21621;SDS011;10973;46.706;12.340;2023-02-20T19:58:02;6.70;;;4.60;;
21621;SDS011;10973;46.706;12.340;2023-02-20T20:00:30;6.20;;;4.77;;
21621;SDS011;10973;46.706;12.340;2023-02-20T20:02:57;4.40;;;3.87;;
21621;SDS011;10973;46.706;12.340;2023-02-20T20:05:25;5.73;;;4.10;;
21621;SDS011;10973;46.706;12.340;2023-02-20T20:07:52;5.53;;;4.27;;
21621;SDS011;10973;46.706;12.340;2023-02-20T20:10:20;6.73;;;4.30;;
21621;SDS011;10973;46.706;12.340;2023-02-20T20:12:51;6.53;;;4.23;;
21621;SDS011;10973;46.706;12.340;2023-02-20T20:15:24;5.27;;;4.27;;
21621;SDS011;10973;46.706;12.340;2023-02-20T20:17:57;6.87;;;4.47;;
21621;SDS011;10973;46.706;12.340;2023-02-20T20:20:27;4.33;;;3.37;;
21621;SDS011;10973;46.706;12.340;2023-02-20T20:22:57;3.50;;;3.10;;
21621;SDS011;10973;46.706;12.340;2023-02-20T20:25:27;5.67;;;4.27;;
21621;SDS011;10973;46.706;12.340;2023-02-20T20:27:55;6.20;;;4.07;;
21621;SDS011;10973;46.706;12.340;2023-02-20T20:30:24;3.80;;;3.50;;
21621;SDS011;10973;46.706;12.340;2023-02-20T20:32:54;3.93;;;3.50;;
21621;SDS011;10973;46.706;12.340;2023-02-20T20:35:23;6.03;;;3.70;;
21621;SDS011;10973;46.706;12.340;2023-02-20T20:37:55;7.57;;;4.10;;
21621;SDS011;10973;46.706;12.340;2023-02-20T20:40:24;3.60;;;3.10;;
21621;SDS011;10973;46.706;12.340;2023-02-20T20:42:53;4.10;;;2.73;;
21621;SDS011;10973;46.706;12.340;2023-02-20T20:45:22;3.80;;;3.00;;
21621;SDS011;10973;46.706;12.340;2023-02-20T20:47:50;3.00;;;2.70;;
21621;SDS011;10973;46.706;12.340;2023-02-20T20:50:19;3.40;;;3.10;;
21621;SDS011;10973;46.706;12.340;2023-02-20T20:52:49;4.33;;;3.50;;
21621;SDS011;10973;46.706;12.340;2023-02-20T20:55:16;5.03;;;3.87;;
21621;SDS011;10973;46.706;12.340;2023-02-20T20:57:44;5.90;;;5.30;;
21621;SDS011;10973;46.706;12.340;2023-02-20T21:00:27;5.27;;;3.87;;
21621;SDS011;10973;46.706;12.340;2023-02-20T21:03:03;4.77;;;4.30;;
21621;SDS011;10973;46.706;12.340;2023-02-20T21:05:33;6.30;;;4.63;;
21621;SDS011;10973;46.706;12.340;2023-02-20T21:08:02;7.40;;;4.87;;
21621;SDS011;10973;46.706;12.340;2023-02-20T21:10:30;8.37;;;5.30;;
21621;SDS011;10973;46.706;12.340;2023-02-20T21:12:57;5.50;;;4.93;;
21621;SDS011;10973;46.706;12.340;2023-02-20T21:15:24;5.67;;;4.13;;
21621;SDS011;10973;46.706;12.340;2023-02-20T21:17:53;6.00;;;4.37;;
21621;SDS011;10973;46.706;12.340;2023-02-20T21:20:21;5.37;;;4.30;;
21621;SDS011;10973;46.706;12.340;2023-02-20T21:22:52;5.67;;;4.20;;
21621;SDS011;10973;46.706;12.340;2023-02-20T21:25:20;4.93;;;4.20;;
21621;SDS011;10973;46.706;12.340;2023-02-20T21:27:48;6.43;;;3.93;;
21621;SDS011;10973;46.706;12.340;2023-02-20T21:30:16;6.53;;;4.33;;
21621;SDS011;10973;46.706;12.340;2023-02-20T21:32:45;4.33;;;3.30;;
21621;SDS011;10973;46.706;12.340;2023-02-20T21:35:14;3.93;;;3.20;;
21621;SDS011;10973;46.706;12.340;2023-02-20T21:37:45;3.47;;;3.17;;
21621;SDS011;10973;46.706;12.340;2023-02-20T21:40:13;6.63;;;4.60;;
21621;SDS011;10973;46.706;12.340;2023-02-20T21:42:43;3.20;;;2.90;;
21621;SDS011;10973;46.706;12.340;2023-02-20T21:45:10;5.73;;;3.40;;
21621;SDS011;10973;46.706;12.340;2023-02-20T21:47:37;5.63;;;3.80;;
21621;SDS011;10973;46.706;12.340;2023-02-20T21:50:06;5.77;;;3.93;;
21621;SDS011;10973;46.706;12.340;2023-02-20T21:52:34;4.53;;;3.80;;
21621;SDS011;10973;46.706;12.340;2023-02-20T21:55:04;6.93;;;3.83;;
21621;SDS011;10973;46.706;12.340;2023-02-20T21:57:34;6.27;;;3.00;;